createdAt,value
2023-01-17T00:00:10.603Z,71.72
2023-01-17T00:02:46.446Z,70.22
2023-01-17T00:05:33.045Z,73.40
2023-01-17T00:10:58.403Z,71.30
2023-01-17T00:13:33.892Z,63.23
2023-01-17T00:16:13.416Z,69.50
2023-01-17T00:19:08.917Z,69.85
2023-01-17T00:21:56.169Z,66.43
2023-01-17T00:24:44.149Z,68.90
2023-01-17T00:27:16.727Z,69.65
2023-01-17T00:29:48.781Z,67.70
2023-01-17T00:32:23.197Z,71.35
2023-01-17T00:34:55.564Z,68.10
2023-01-17T00:37:29.364Z,68.70
2023-01-17T00:39:59.863Z,64.07
2023-01-17T00:42:33.779Z,58.35
2023-01-17T00:45:21.187Z,62.40
2023-01-17T00:48:11.247Z,62.08
2023-01-17T00:50:58.911Z,55.10
2023-01-17T00:53:45.232Z,57.03
2023-01-17T00:56:32.485Z,56.38
2023-01-17T00:59:19.747Z,56.42
2023-01-17T01:02:06.505Z,57.58
2023-01-17T01:04:55.769Z,59.55
2023-01-17T01:07:42.480Z,49.35
2023-01-17T01:10:29.615Z,53.38
2023-01-17T01:13:16.005Z,55.70
2023-01-17T01:16:02.895Z,51.67
2023-01-17T01:18:50.568Z,57.28
2023-01-17T01:21:39.675Z,50.70
2023-01-17T01:24:24.144Z,50.00
2023-01-17T01:27:11.382Z,45.92
2023-01-17T01:29:58.500Z,52.65
2023-01-17T01:32:45.411Z,52.58
2023-01-17T01:35:20.664Z,47.85
2023-01-17T01:37:57.584Z,48.73
2023-01-17T01:40:35.187Z,45.07
2023-01-17T01:43:12.403Z,47.70
2023-01-17T01:45:49.365Z,43.65
2023-01-17T01:48:29.474Z,46.83
2023-01-17T01:51:05.158Z,38.15
2023-01-17T01:53:40.204Z,46.15
2023-01-17T01:56:20.252Z,40.22
2023-01-17T01:58:56.703Z,38.97
2023-01-17T02:01:33.320Z,41.40
2023-01-17T02:04:10.188Z,35.97
2023-01-17T02:06:46.890Z,37.10
2023-01-17T02:09:22.017Z,34.47
2023-01-17T02:12:00.277Z,28.60
2023-01-17T02:14:34.952Z,27.83
2023-01-17T02:17:17.744Z,22.98
2023-01-17T02:19:48.880Z,20.00
2023-01-17T02:23:01.637Z,18.37
2023-01-17T02:25:57.225Z,11.60
2023-01-17T02:28:42.750Z,15.35
2023-01-17T02:31:21.699Z,11.68
2023-01-17T02:34:00.842Z,9.52
2023-01-17T02:36:36.281Z,9.25
2023-01-17T02:39:12.610Z,8.75
2023-01-17T02:41:47.998Z,8.70
2023-01-17T02:44:24.399Z,7.80
2023-01-17T02:47:04.419Z,7.53
2023-01-17T02:49:39.402Z,6.70
2023-01-17T02:52:23.695Z,8.20
2023-01-17T02:55:06.739Z,6.63
2023-01-17T02:57:52.509Z,6.70
2023-01-17T03:00:30.040Z,6.65
2023-01-17T03:03:10.746Z,6.65
2023-01-17T03:05:48.234Z,7.10
2023-01-17T03:08:23.348Z,6.38
2023-01-17T03:10:58.786Z,7.85
2023-01-17T03:13:33.481Z,4.70
2023-01-17T03:16:12.580Z,5.70
2023-01-17T03:18:49.722Z,5.57
2023-01-17T03:21:23.827Z,5.55
2023-01-17T03:23:59.807Z,6.72
2023-01-17T03:26:35.123Z,7.90
2023-01-17T03:29:09.650Z,6.07
2023-01-17T03:31:43.899Z,6.53
2023-01-17T03:34:22.796Z,6.35
2023-01-17T03:36:57.154Z,8.60
2023-01-17T03:39:33.785Z,5.45
2023-01-17T03:42:08.878Z,6.32
2023-01-17T03:44:45.352Z,8.77
2023-01-17T03:47:20.981Z,5.72
2023-01-17T03:49:59.403Z,6.40
2023-01-17T03:52:34.929Z,5.75
2023-01-17T03:55:15.871Z,7.25
2023-01-17T03:57:51.495Z,7.32
2023-01-17T04:00:27.217Z,8.77
2023-01-17T04:03:02.111Z,7.72
2023-01-17T04:05:40.947Z,7.90
2023-01-17T04:08:28.042Z,8.20
2023-01-17T04:11:03.344Z,4.97
2023-01-17T04:13:38.595Z,7.53
2023-01-17T04:16:14.660Z,6.93
2023-01-17T04:18:49.731Z,6.93
2023-01-17T04:21:26.605Z,6.23
2023-01-17T04:24:01.883Z,7.65
2023-01-17T04:26:37.634Z,9.45
2023-01-17T04:29:12.487Z,7.50
2023-01-17T04:31:49.175Z,8.77
2023-01-17T04:34:24.103Z,8.85
2023-01-17T04:37:04.739Z,8.10
2023-01-17T04:39:40.118Z,9.63
2023-01-17T04:42:15.741Z,10.48
2023-01-17T04:44:50.613Z,9.60
2023-01-17T04:47:25.938Z,9.25
2023-01-17T04:50:01.609Z,8.02
2023-01-17T04:52:39.141Z,8.35
2023-01-17T04:55:14.441Z,7.35
2023-01-17T04:57:51.192Z,9.03
2023-01-17T05:03:01.216Z,8.23
2023-01-17T05:05:38.852Z,7.82
2023-01-17T05:08:15.632Z,9.02
2023-01-17T05:10:50.199Z,7.65
2023-01-17T05:13:25.684Z,7.75
2023-01-17T05:16:02.037Z,5.20
2023-01-17T05:18:38.424Z,5.90
2023-01-17T05:21:13.867Z,6.28
2023-01-17T05:23:50.989Z,5.90
2023-01-17T05:26:24.101Z,5.03
2023-01-17T05:28:59.244Z,5.35
2023-01-17T05:31:34.896Z,5.35
2023-01-17T05:34:10.862Z,3.33
2023-01-17T05:36:44.763Z,5.43
2023-01-17T05:39:22.313Z,5.18
2023-01-17T05:42:00.828Z,4.20
2023-01-17T05:44:36.533Z,5.00
2023-01-17T05:47:10.804Z,5.97
2023-01-17T05:49:47.604Z,4.65
2023-01-17T05:52:23.010Z,4.07
2023-01-17T05:55:01.521Z,3.80
2023-01-17T05:57:37.008Z,4.38
2023-01-17T06:00:14.949Z,5.85
2023-01-17T06:02:50.620Z,5.45
2023-01-17T06:05:25.949Z,4.20
2023-01-17T06:08:01.237Z,7.60
2023-01-17T06:10:39.414Z,3.80
2023-01-17T06:13:15.594Z,4.70
2023-01-17T06:15:50.590Z,5.25
2023-01-17T06:18:25.550Z,5.70
2023-01-17T06:21:00.686Z,4.72
2023-01-17T06:23:35.860Z,6.20
2023-01-17T06:26:14.139Z,4.60
2023-01-17T06:28:49.980Z,4.63
2023-01-17T06:31:26.292Z,8.52
2023-01-17T06:34:01.325Z,6.90
2023-01-17T06:36:36.353Z,7.78
2023-01-17T06:39:15.200Z,6.55
2023-01-17T06:41:54.373Z,8.05
2023-01-17T06:44:29.555Z,6.60
2023-01-17T06:47:05.399Z,4.13
2023-01-17T06:49:40.879Z,4.03
2023-01-17T06:52:15.356Z,5.37
2023-01-17T06:54:51.126Z,2.93
2023-01-17T06:57:29.713Z,3.28
2023-01-17T07:00:06.268Z,3.08
2023-01-17T07:02:41.052Z,3.50
2023-01-17T07:05:19.385Z,3.50
2023-01-17T07:07:56.742Z,4.75
2023-01-17T07:10:31.695Z,3.20
2023-01-17T07:13:16.112Z,2.97
2023-01-17T07:15:51.740Z,2.83
2023-01-17T07:18:26.682Z,4.03
2023-01-17T07:21:01.951Z,3.58
2023-01-17T07:23:38.729Z,5.40
2023-01-17T07:26:14.493Z,7.32
2023-01-17T07:28:52.247Z,10.35
2023-01-17T07:31:27.778Z,7.28
2023-01-17T07:34:02.995Z,6.20
2023-01-17T07:36:39.513Z,6.78
2023-01-17T07:39:14.015Z,6.72
2023-01-17T07:41:49.309Z,3.97
2023-01-17T07:44:27.089Z,4.30
2023-01-17T07:47:05.139Z,1.92
2023-01-17T07:49:41.125Z,3.72
2023-01-17T07:52:18.238Z,3.67
2023-01-17T07:54:53.704Z,4.70
2023-01-17T07:57:28.570Z,4.40
2023-01-17T08:00:08.074Z,5.35
2023-01-17T08:02:51.248Z,4.70
2023-01-17T08:05:26.673Z,5.85
2023-01-17T08:08:01.790Z,5.32
2023-01-17T08:10:37.598Z,3.77
2023-01-17T08:13:12.535Z,4.60
2023-01-17T08:15:51.999Z,5.88
2023-01-17T08:18:27.485Z,4.43
2023-01-17T08:21:04.872Z,4.30
2023-01-17T08:23:43.035Z,4.55
2023-01-17T08:26:21.709Z,6.50
2023-01-17T08:29:01.947Z,4.93
2023-01-17T08:31:40.890Z,4.20
2023-01-17T08:34:16.516Z,6.63
2023-01-17T08:36:50.887Z,3.08
2023-01-17T08:39:28.543Z,2.92
2023-01-17T08:42:04.327Z,2.72
2023-01-17T08:44:40.058Z,3.20
2023-01-17T08:47:17.997Z,3.05
2023-01-17T08:49:55.529Z,6.38
2023-01-17T08:52:30.758Z,4.60
2023-01-17T08:55:11.533Z,6.80
2023-01-17T08:57:47.610Z,5.80
2023-01-17T09:03:11.367Z,2.80
2023-01-17T09:05:46.856Z,2.28
2023-01-17T09:08:26.752Z,3.03
2023-01-17T09:11:02.040Z,4.00
2023-01-17T09:13:37.102Z,4.93
2023-01-17T09:16:12.726Z,5.20
2023-01-17T09:18:50.806Z,4.87
2023-01-17T09:21:25.655Z,5.32
2023-01-17T09:24:01.014Z,5.20
2023-01-17T09:26:38.047Z,3.20
2023-01-17T09:29:13.913Z,6.95
2023-01-17T09:31:50.267Z,5.38
2023-01-17T09:34:30.753Z,3.80
2023-01-17T09:37:07.890Z,3.60
2023-01-17T09:39:46.264Z,2.92
2023-01-17T09:42:24.718Z,2.95
2023-01-17T09:45:00.007Z,6.05
2023-01-17T09:47:39.552Z,2.85
2023-01-17T09:50:30.016Z,4.07
2023-01-17T09:53:06.454Z,10.77
2023-01-17T09:55:43.817Z,3.47
2023-01-17T09:58:21.846Z,2.30
2023-01-17T10:01:01.451Z,3.03
2023-01-17T10:03:50.144Z,5.40
2023-01-17T10:06:49.604Z,2.83
2023-01-17T10:09:45.848Z,3.70
2023-01-17T10:12:27.894Z,3.78
2023-01-17T10:15:22.251Z,1.50
2023-01-17T10:18:00.943Z,2.00
2023-01-17T10:20:45.708Z,3.40
2023-01-17T10:23:41.521Z,4.90
2023-01-17T10:26:19.377Z,1.65
2023-01-17T10:28:55.188Z,3.55
2023-01-17T10:31:31.354Z,1.60
2023-01-17T10:34:05.905Z,2.78
2023-01-17T10:36:43.230Z,3.38
2023-01-17T10:39:23.790Z,1.65
2023-01-17T10:41:59.325Z,2.15
2023-01-17T10:44:36.569Z,2.73
2023-01-17T10:47:16.172Z,2.83
2023-01-17T10:49:53.057Z,1.98
2023-01-17T10:52:37.431Z,1.85
2023-01-17T10:55:35.129Z,2.72
2023-01-17T10:58:12.260Z,2.95
2023-01-17T11:00:49.652Z,2.33
2023-01-17T11:03:24.180Z,1.77
2023-01-17T11:06:34.617Z,2.00
2023-01-17T11:09:12.103Z,2.50
2023-01-17T11:11:54.096Z,1.73
2023-01-17T11:14:31.078Z,1.42
2023-01-17T11:17:06.985Z,1.83
2023-01-17T11:19:45.786Z,2.03
2023-01-17T11:22:20.449Z,1.55
2023-01-17T11:24:58.611Z,4.65
2023-01-17T11:27:37.913Z,2.08
2023-01-17T11:30:20.014Z,1.40
2023-01-17T11:32:56.221Z,1.80
2023-01-17T11:35:32.594Z,3.33
2023-01-17T11:38:15.287Z,2.60
2023-01-17T11:40:50.039Z,3.03
2023-01-17T11:43:28.494Z,3.08
2023-01-17T11:46:08.531Z,1.90
2023-01-17T11:48:43.910Z,5.93
2023-01-17T11:51:25.954Z,2.97
2023-01-17T11:54:11.402Z,3.53
2023-01-17T11:56:45.284Z,3.33
2023-01-17T11:59:39.888Z,2.30
2023-01-17T12:02:40.807Z,3.45
2023-01-17T12:05:53.891Z,1.73
2023-01-17T12:08:34.777Z,3.40
2023-01-17T12:11:13.463Z,4.55
2023-01-17T12:14:01.494Z,1.40
2023-01-17T12:16:47.828Z,1.65
2023-01-17T12:19:32.776Z,2.45
2023-01-17T12:22:22.931Z,2.55
2023-01-17T12:25:15.995Z,3.30
2023-01-17T12:27:58.792Z,2.35
2023-01-17T12:30:46.994Z,2.38
2023-01-17T12:33:27.743Z,3.50
2023-01-17T12:36:03.983Z,4.25
2023-01-17T12:38:41.469Z,2.33
2023-01-17T12:41:19.555Z,3.22
2023-01-17T12:44:00.343Z,3.05
2023-01-17T12:46:38.943Z,1.65
2023-01-17T12:49:23.490Z,3.90
2023-01-17T12:52:03.587Z,2.35
2023-01-17T12:54:40.016Z,3.35
2023-01-17T12:57:17.235Z,2.53
2023-01-17T12:59:55.114Z,2.13
2023-01-17T13:02:39.181Z,3.25
2023-01-17T13:05:26.223Z,2.13
2023-01-17T13:08:05.456Z,2.07
2023-01-17T13:10:43.686Z,2.65
2023-01-17T13:13:22.780Z,1.63
2023-01-17T13:16:01.190Z,2.15
2023-01-17T13:18:38.023Z,2.88
2023-01-17T13:24:11.328Z,2.00
2023-01-17T13:26:42.061Z,1.73
2023-01-17T13:29:22.666Z,1.10
2023-01-17T13:32:01.505Z,2.40
2023-01-17T13:35:00.954Z,2.00
2023-01-17T13:37:59.420Z,1.55
2023-01-17T13:40:38.741Z,2.67
2023-01-17T13:43:17.660Z,7.40
2023-01-17T13:45:56.540Z,3.63
2023-01-17T13:48:37.820Z,2.53
2023-01-17T13:51:12.552Z,4.95
2023-01-17T13:53:57.134Z,3.80
2023-01-17T13:56:41.952Z,1.98
2023-01-17T13:59:36.813Z,2.00
2023-01-17T14:02:09.930Z,2.22
2023-01-17T14:05:11.046Z,10.50
2023-01-17T14:07:48.214Z,2.63
2023-01-17T14:10:33.157Z,2.35
2023-01-17T14:13:09.601Z,2.80
2023-01-17T14:15:54.241Z,2.00
2023-01-17T14:18:37.032Z,5.68
2023-01-17T14:21:14.835Z,2.13
2023-01-17T14:23:57.060Z,3.27
2023-01-17T14:26:51.200Z,2.53
2023-01-17T14:29:52.477Z,3.10
2023-01-17T14:32:27.724Z,3.45
2023-01-17T14:35:05.060Z,4.00
2023-01-17T14:37:48.146Z,4.45
2023-01-17T14:40:26.667Z,5.90
2023-01-17T14:42:57.335Z,6.97
2023-01-17T14:45:37.891Z,5.30
2023-01-17T14:48:20.077Z,2.67
2023-01-17T14:50:57.520Z,3.80
2023-01-17T14:53:32.436Z,3.50
2023-01-17T14:56:15.737Z,2.08
2023-01-17T14:58:51.981Z,2.25
2023-01-17T15:01:34.153Z,3.05
2023-01-17T15:04:10.018Z,3.30
2023-01-17T15:06:48.175Z,2.55
2023-01-17T15:09:26.080Z,4.10
2023-01-17T15:12:02.767Z,3.42
2023-01-17T15:14:40.830Z,3.40
2023-01-17T15:17:21.549Z,2.30
2023-01-17T15:19:57.358Z,3.30
2023-01-17T15:22:35.054Z,4.30
2023-01-17T15:25:14.772Z,3.55
2023-01-17T15:27:52.787Z,4.18
2023-01-17T15:30:30.116Z,3.20
2023-01-17T15:33:07.508Z,3.40
2023-01-17T15:35:43.362Z,3.72
2023-01-17T15:38:19.211Z,6.05
2023-01-17T15:40:56.263Z,3.30
2023-01-17T15:43:36.144Z,3.75
2023-01-17T15:46:26.165Z,5.93
2023-01-17T15:49:18.684Z,6.05
2023-01-17T15:51:56.408Z,3.27
2023-01-17T15:54:48.469Z,3.38
2023-01-17T15:57:30.981Z,4.50
2023-01-17T16:00:08.882Z,4.03
2023-01-17T16:02:46.073Z,2.97
2023-01-17T16:05:43.996Z,4.70
2023-01-17T16:08:43.279Z,4.80
2023-01-17T16:11:19.259Z,3.05
2023-01-17T16:16:32.588Z,4.75
2023-01-17T16:19:07.938Z,6.35
2023-01-17T16:21:48.326Z,4.15
2023-01-17T16:24:24.455Z,6.13
2023-01-17T16:29:36.029Z,4.15
2023-01-17T16:32:11.913Z,5.40
2023-01-17T16:34:47.348Z,5.45
2023-01-17T16:37:26.192Z,7.60
2023-01-17T16:40:01.256Z,8.63
2023-01-17T16:42:37.905Z,7.88
2023-01-17T16:45:15.337Z,9.48
2023-01-17T16:47:51.118Z,8.85
2023-01-17T16:50:29.883Z,9.30
2023-01-17T16:53:09.174Z,9.80
2023-01-17T16:55:46.647Z,7.10
2023-01-17T16:58:24.009Z,5.40
2023-01-17T17:01:00.260Z,7.53
2023-01-17T17:03:36.034Z,11.68
2023-01-17T17:06:12.555Z,9.85
2023-01-17T17:08:52.138Z,11.20
2023-01-17T17:11:27.070Z,8.13
2023-01-17T17:14:02.099Z,8.60
2023-01-17T17:16:37.064Z,8.00
2023-01-17T17:19:13.148Z,11.07
2023-01-17T17:24:25.135Z,15.43
2023-01-17T17:27:00.369Z,14.75
2023-01-17T17:29:35.242Z,10.00
2023-01-17T17:32:12.096Z,11.75
2023-01-17T17:34:47.863Z,11.88
2023-01-17T17:37:23.672Z,16.10
2023-01-17T17:40:00.601Z,11.52
2023-01-17T17:42:35.040Z,14.17
2023-01-17T17:45:11.149Z,15.13
2023-01-17T17:50:24.788Z,13.23
2023-01-17T17:52:56.988Z,10.23
2023-01-17T17:55:36.630Z,18.30
2023-01-17T17:58:11.174Z,48.95
2023-01-17T18:00:45.849Z,44.15
2023-01-17T18:03:20.125Z,46.28
2023-01-17T18:05:55.288Z,24.65
2023-01-17T18:08:32.666Z,41.47
2023-01-17T18:11:11.382Z,26.85
2023-01-17T18:13:47.845Z,23.98
2023-01-17T18:16:23.037Z,25.25
2023-01-17T18:19:01.861Z,22.50
2023-01-17T18:21:38.031Z,27.85
2023-01-17T18:26:51.089Z,19.25
2023-01-17T18:29:26.407Z,21.85
2023-01-17T18:32:01.762Z,22.55
2023-01-17T18:34:41.625Z,20.25
2023-01-17T18:37:16.610Z,35.03
2023-01-17T18:39:52.008Z,27.48
2023-01-17T18:42:30.381Z,25.85
2023-01-17T18:45:05.352Z,35.67
2023-01-17T18:47:39.894Z,58.10
2023-01-17T18:50:14.995Z,57.70
2023-01-17T18:52:50.343Z,42.67
2023-01-17T18:55:24.746Z,41.92
2023-01-17T18:58:01.672Z,36.15
2023-01-17T19:00:36.970Z,35.22
2023-01-17T19:03:12.514Z,34.25
2023-01-17T19:05:48.565Z,39.30
2023-01-17T19:08:23.118Z,32.55
2023-01-17T19:10:58.407Z,31.85
2023-01-17T19:13:36.635Z,36.93
2023-01-17T19:16:12.240Z,35.85
2023-01-17T19:18:47.274Z,34.58
2023-01-17T19:21:23.853Z,43.55
2023-01-17T19:24:01.440Z,41.30
2023-01-17T19:26:37.126Z,36.45
2023-01-17T19:29:15.720Z,38.70
2023-01-17T19:31:50.605Z,38.40
2023-01-17T19:34:25.931Z,37.50
2023-01-17T19:37:05.730Z,35.13
2023-01-17T19:39:46.526Z,43.67
2023-01-17T19:42:22.224Z,58.20
2023-01-17T19:45:03.541Z,42.10
2023-01-17T19:47:37.799Z,44.10
2023-01-17T19:50:17.555Z,46.40
2023-01-17T19:52:53.446Z,48.58
2023-01-17T19:55:30.612Z,46.00
2023-01-17T19:58:06.764Z,63.00
2023-01-17T20:03:23.592Z,61.03
2023-01-17T20:06:02.026Z,57.93
2023-01-17T20:08:40.729Z,57.65
2023-01-17T20:11:17.958Z,64.65
2023-01-17T20:13:54.775Z,69.13
2023-01-17T20:16:33.785Z,71.87
2023-01-17T20:19:08.687Z,57.65
2023-01-17T20:21:47.635Z,55.63
2023-01-17T20:24:23.074Z,69.10
2023-01-17T20:27:00.611Z,126.23
2023-01-17T20:29:36.534Z,99.30
2023-01-17T20:32:17.529Z,58.53
2023-01-17T20:34:53.565Z,55.80
2023-01-17T20:37:29.269Z,61.08
2023-01-17T20:40:04.431Z,60.72
2023-01-17T20:42:40.560Z,61.70
2023-01-17T20:45:16.477Z,58.08
2023-01-17T20:47:55.652Z,57.10
2023-01-17T20:50:31.735Z,54.05
2023-01-17T20:53:08.549Z,53.17
2023-01-17T20:55:44.775Z,58.88
2023-01-17T20:58:26.396Z,130.95
2023-01-17T21:01:05.280Z,113.68
2023-01-17T21:03:44.924Z,72.13
2023-01-17T21:06:19.289Z,68.60
2023-01-17T21:08:54.874Z,60.05
2023-01-17T21:11:30.957Z,67.90
2023-01-17T21:14:05.960Z,101.82
2023-01-17T21:16:41.517Z,160.38
2023-01-17T21:19:20.835Z,127.30
2023-01-17T21:21:56.578Z,72.90
2023-01-17T21:24:32.622Z,58.40
2023-01-17T21:27:07.314Z,65.63
2023-01-17T21:29:43.364Z,58.78
2023-01-17T21:32:20.743Z,105.47
2023-01-17T21:34:58.793Z,71.65
2023-01-17T21:37:36.780Z,55.15
2023-01-17T21:40:14.951Z,59.00
2023-01-17T21:42:49.266Z,70.65
2023-01-17T21:45:32.509Z,103.55
2023-01-17T21:48:07.977Z,142.75
2023-01-17T21:50:47.815Z,82.82
2023-01-17T21:53:24.492Z,71.82
2023-01-17T21:56:15.861Z,61.60
2023-01-17T21:58:53.943Z,63.42
2023-01-17T22:01:30.442Z,62.80
2023-01-17T22:04:06.290Z,58.95
2023-01-17T22:06:44.384Z,60.95
2023-01-17T22:09:21.202Z,56.70
2023-01-17T22:11:59.920Z,61.10
2023-01-17T22:14:36.383Z,60.38
2023-01-17T22:17:11.780Z,63.83
2023-01-17T22:19:47.759Z,67.97
2023-01-17T22:22:25.945Z,62.20
2023-01-17T22:25:01.719Z,58.53
2023-01-17T22:27:38.021Z,49.90
2023-01-17T22:30:15.435Z,52.15
2023-01-17T22:32:50.064Z,43.75
2023-01-17T22:35:25.905Z,48.90
2023-01-17T22:38:03.410Z,48.45
2023-01-17T22:40:38.527Z,49.50
2023-01-17T22:43:13.803Z,43.25
2023-01-17T22:45:50.001Z,47.45
2023-01-17T22:48:25.875Z,45.85
2023-01-17T22:51:02.350Z,54.90
2023-01-17T22:53:43.132Z,51.10
2023-01-17T22:56:19.424Z,46.97
2023-01-17T22:58:55.163Z,60.25
2023-01-17T23:01:31.123Z,129.85
2023-01-17T23:04:07.289Z,144.07
2023-01-17T23:09:20.060Z,122.13
2023-01-17T23:11:56.485Z,64.50
2023-01-17T23:14:54.154Z,55.23
2023-01-17T23:17:40.287Z,47.83
2023-01-17T23:20:15.835Z,46.10
2023-01-17T23:22:52.860Z,37.83
2023-01-17T23:25:30.424Z,43.58
2023-01-17T23:28:11.578Z,37.20
2023-01-17T23:30:48.010Z,33.10
2023-01-17T23:33:22.646Z,38.78
2023-01-17T23:35:56.960Z,38.45
2023-01-17T23:38:29.918Z,39.75
2023-01-17T23:41:21.511Z,37.63
2023-01-17T23:43:56.901Z,52.90
2023-01-17T23:46:33.738Z,51.15
2023-01-17T23:49:08.863Z,42.30
2023-01-17T23:51:46.375Z,35.13
2023-01-17T23:54:22.284Z,36.40
2023-01-17T23:57:01.269Z,38.53
2023-01-17T23:59:39.537Z,40.03
